Time;durP1;ratioP1;P1;durP2;ratioP2;P2;SDS_P1;SDS_P2;PMS_P1;PMS_P2;Temp;Humidity;BMP_temperature;BMP_pressure;BME280_temperature;BME280_humidity;BME280_pressure;Samples;Min_cycle;Max_cycle;Signal;HPM_P1;HPM_P2
2023/02/12 00:01:09;;;;;;;27.07;6.90;;;26.60;66.40;;;;;;5063483;28;20195;-71
2023/02/12 00:03:37;;;;;;;25.00;6.90;;;26.80;65.70;;;;;;5067138;28;20187;-71
2023/02/12 00:06:06;;;;;;;25.73;6.37;;;26.90;65.70;;;;;;5067624;28;20650;-71
2023/02/12 00:08:33;;;;;;;23.17;5.83;;;26.70;65.90;;;;;;5072080;28;20201;-70
2023/02/12 00:11:07;;;;;;;22.53;5.90;;;26.30;66.60;;;;;;5069190;28;20207;-73
2023/02/12 00:13:34;;;;;;;26.80;6.07;;;26.20;66.70;;;;;;5062228;28;20202;-72
2023/02/12 00:16:08;;;;;;;27.93;6.20;;;25.90;67.20;;;;;;5071481;28;20187;-70
2023/02/12 00:18:35;;;;;;;20.50;6.30;;;25.80;68.30;;;;;;5063195;28;20286;-68
2023/02/12 00:21:04;;;;;;;19.60;5.83;;;25.80;68.00;;;;;;5070620;28;20346;-70
2023/02/12 00:23:32;;;;;;;24.37;6.63;;;26.00;67.60;;;;;;5069649;28;20184;-70
2023/02/12 00:25:59;;;;;;;24.70;5.67;;;26.20;67.10;;;;;;5071017;28;20190;-71
2023/02/12 00:28:26;;;;;;;21.17;6.43;;;26.30;66.40;;;;;;5068476;28;20183;-69
2023/02/12 00:30:54;;;;;;;29.63;6.67;;;26.10;66.80;;;;;;5071279;28;20194;-69
2023/02/12 00:33:21;;;;;;;29.87;6.47;;;26.00;67.00;;;;;;5063415;28;20183;-70
2023/02/12 00:35:58;;;;;;;26.13;6.93;;;26.00;67.30;;;;;;5069991;28;20259;-70
2023/02/12 00:38:25;;;;;;;28.73;6.30;;;26.10;66.60;;;;;;5068350;28;20252;-71
2023/02/12 00:40:52;;;;;;;28.43;6.83;;;25.90;67.40;;;;;;5067590;28;20190;-70
2023/02/12 00:43:20;;;;;;;25.80;6.17;;;25.80;67.60;;;;;;5062143;28;20605;-71
2023/02/12 00:45:47;;;;;;;23.03;6.27;;;25.80;67.20;;;;;;5068896;28;20208;-74
2023/02/12 00:48:15;;;;;;;27.17;5.60;;;25.90;67.20;;;;;;5070099;28;20226;-71
2023/02/12 00:50:47;;;;;;;25.23;6.77;;;26.20;66.20;;;;;;5069199;28;20179;-68
2023/02/12 00:53:14;;;;;;;20.20;5.93;;;26.10;66.00;;;;;;5062970;28;20231;-67
2023/02/12 00:55:42;;;;;;;24.53;6.33;;;26.30;65.40;;;;;;5069275;28;20187;-69
2023/02/12 00:58:10;;;;;;;21.30;6.40;;;26.40;65.10;;;;;;5070794;28;20240;-69
2023/02/12 01:00:37;;;;;;;23.10;6.37;;;26.30;65.30;;;;;;5070614;28;20228;-70
2023/02/12 01:03:05;;;;;;;26.70;6.33;;;26.40;64.80;;;;;;5071929;28;20191;-69
2023/02/12 01:05:33;;;;;;;21.93;6.57;;;27.10;63.30;;;;;;5069790;28;20207;-70
2023/02/12 01:08:01;;;;;;;27.00;6.73;;;27.30;62.10;;;;;;5070929;28;20198;-68
2023/02/12 01:10:28;;;;;;;32.53;5.97;;;27.00;62.90;;;;;;5070009;28;20282;-71
2023/02/12 01:12:55;;;;;;;23.07;6.50;;;26.90;63.30;;;;;;5070819;28;20179;-68
2023/02/12 01:15:23;;;;;;;19.53;5.67;;;26.90;62.90;;;;;;5067325;28;20195;-74
2023/02/12 01:17:54;;;;;;;16.60;5.57;;;26.80;63.10;;;;;;5071168;28;20662;-75
2023/02/12 01:20:23;;;;;;;26.50;6.23;;;26.80;63.10;;;;;;5070872;28;20287;-72
2023/02/12 01:22:51;;;;;;;22.53;6.13;;;26.90;62.70;;;;;;5071299;28;20529;-69
2023/02/12 01:25:19;;;;;;;24.30;6.13;;;27.10;62.30;;;;;;5071110;28;20646;-69
2023/02/12 01:27:46;;;;;;;21.10;6.13;;;26.90;63.00;;;;;;5069806;28;20210;-74
2023/02/12 01:30:14;;;;;;;24.77;6.20;;;26.70;63.60;;;;;;5071153;28;20270;-72
2023/02/12 01:32:42;;;;;;;20.27;6.30;;;26.40;64.40;;;;;;5071557;28;20186;-70
2023/02/12 01:35:10;;;;;;;21.37;6.17;;;26.60;64.10;;;;;;5070091;28;20168;-73
2023/02/12 01:37:38;;;;;;;26.50;5.60;;;26.80;62.60;;;;;;5071625;28;20175;-72
2023/02/12 01:40:07;;;;;;;23.73;5.90;;;27.00;62.20;;;;;;5070773;28;20576;-74
2023/02/12 01:42:35;;;;;;;19.60;5.37;;;27.30;61.90;;;;;;5062563;28;20266;-74
2023/02/12 01:45:14;;;;;;;25.60;5.33;;;27.60;61.00;;;;;;5070593;28;20262;-74
2023/02/12 01:47:44;;;;;;;19.23;5.63;;;27.40;60.40;;;;;;5073951;28;20198;-70
2023/02/12 01:50:16;;;;;;;22.37;5.73;;;27.60;60.30;;;;;;5070016;28;20184;-68
2023/02/12 01:52:48;;;;;;;19.23;4.80;;;27.90;58.80;;;;;;5071019;28;20211;-71
2023/02/12 01:55:16;;;;;;;14.73;4.73;;;27.80;59.00;;;;;;5070522;28;20176;-71
2023/02/12 01:57:46;;;;;;;17.43;4.30;;;27.70;58.60;;;;;;5071305;28;20561;-74
2023/02/12 02:00:17;;;;;;;20.10;4.93;;;27.60;58.80;;;;;;5070661;28;20215;-72
2023/02/12 02:02:56;;;;;;;17.37;5.07;;;27.70;59.40;;;;;;5071154;28;20645;-71
2023/02/12 02:05:40;;;;;;;17.03;4.93;;;27.90;58.10;;;;;;5069774;28;20183;-67
2023/02/12 02:08:08;;;;;;;19.43;4.83;;;28.20;57.50;;;;;;5070575;28;20187;-71
2023/02/12 02:10:35;;;;;;;15.83;4.67;;;28.30;55.70;;;;;;5070808;28;20657;-74
2023/02/12 02:15:54;;;;;;;10.97;4.37;;;27.90;55.30;;;;;;5069772;28;20182;-73
2023/02/12 02:18:38;;;;;;;14.63;4.20;;;27.90;55.60;;;;;;5070956;28;20195;-71
2023/02/12 02:21:29;;;;;;;15.50;4.57;;;27.90;55.80;;;;;;5070361;28;20219;-70
2023/02/12 02:24:15;;;;;;;13.50;3.40;;;28.30;54.20;;;;;;5069527;28;20661;-69
2023/02/12 02:27:05;;;;;;;16.33;4.50;;;28.60;53.90;;;;;;5074323;28;20175;-69
2023/02/12 02:30:03;;;;;;;16.07;4.50;;;28.30;55.60;;;;;;5072801;28;20183;-70
2023/02/12 02:32:41;;;;;;;17.37;4.83;;;28.00;57.20;;;;;;5073535;28;20653;-73
2023/02/12 02:35:19;;;;;;;22.23;4.50;;;27.80;57.10;;;;;;5073893;28;20206;-71
2023/02/12 02:38:12;;;;;;;16.47;4.47;;;27.90;57.70;;;;;;5071382;28;20175;-71
2023/02/12 02:40:51;;;;;;;14.27;4.10;;;28.00;55.50;;;;;;5071803;28;20184;-72
2023/02/12 02:43:27;;;;;;;18.43;4.40;;;28.00;54.90;;;;;;5070360;28;20182;-71
2023/02/12 02:46:28;;;;;;;20.40;5.20;;;28.10;55.40;;;;;;5074356;28;20182;-74
2023/02/12 02:49:04;;;;;;;20.37;4.63;;;28.30;55.00;;;;;;5072304;28;20199;-74
2023/02/12 02:51:45;;;;;;;20.37;5.13;;;28.00;56.90;;;;;;5073314;28;20254;-73
2023/02/12 02:54:35;;;;;;;20.43;5.10;;;27.90;57.90;;;;;;5073824;28;20194;-73
2023/02/12 02:57:30;;;;;;;18.37;4.13;;;28.30;58.10;;;;;;5073405;28;20179;-71
2023/02/12 03:00:27;;;;;;;18.90;4.80;;;28.40;56.20;;;;;;5070184;28;20221;-71
2023/02/12 03:03:18;;;;;;;18.17;4.53;;;28.00;56.90;;;;;;5063032;28;20186;-72
2023/02/12 03:05:49;;;;;;;18.87;4.50;;;28.00;56.70;;;;;;5071113;28;20240;-71
2023/02/12 03:08:41;;;;;;;19.27;4.60;;;28.00;57.20;;;;;;5070028;28;20187;-71
2023/02/12 03:11:19;;;;;;;20.47;5.60;;;28.60;55.70;;;;;;5073226;28;20175;-69
2023/02/12 03:14:09;;;;;;;14.60;4.57;;;29.00;54.90;;;;;;5073573;28;20179;-70
2023/02/12 03:16:43;;;;;;;19.80;4.60;;;28.70;55.70;;;;;;5073276;28;20301;-72
2023/02/12 03:19:17;;;;;;;22.17;4.97;;;28.50;56.70;;;;;;5072483;28;20210;-72
2023/02/12 03:21:59;;;;;;;15.20;4.57;;;28.90;55.90;;;;;;5073188;28;20322;-73
2023/02/12 03:24:37;;;;;;;20.30;4.57;;;28.80;56.10;;;;;;5073560;28;20211;-71
2023/02/12 03:27:31;;;;;;;21.13;5.20;;;29.10;55.10;;;;;;5072834;28;20275;-71
2023/02/12 03:29:58;;;;;;;17.20;4.67;;;29.10;55.60;;;;;;5072655;28;20211;-74
2023/02/12 03:32:56;;;;;;;17.30;4.97;;;28.90;56.80;;;;;;5073213;28;20661;-70
2023/02/12 03:35:42;;;;;;;20.30;5.10;;;28.80;57.10;;;;;;5071786;28;20178;-72
2023/02/12 03:38:25;;;;;;;22.87;5.63;;;28.50;57.10;;;;;;5072453;28;20215;-68
2023/02/12 03:41:23;;;;;;;18.73;5.03;;;28.30;58.10;;;;;;5070136;28;20566;-72
2023/02/12 03:44:07;;;;;;;19.07;5.07;;;28.50;57.00;;;;;;5068636;28;20248;-72
2023/02/12 03:46:46;;;;;;;20.70;5.60;;;29.10;56.80;;;;;;5068638;28;20179;-73
2023/02/12 03:49:21;;;;;;;14.90;4.67;;;29.20;55.50;;;;;;5070575;28;20189;-73
2023/02/12 03:51:48;;;;;;;18.17;5.80;;;28.90;56.00;;;;;;5072395;28;20579;-70
2023/02/12 03:54:20;;;;;;;14.87;4.33;;;28.90;54.80;;;;;;5072694;28;20179;-72
2023/02/12 03:57:14;;;;;;;13.30;5.00;;;28.90;54.40;;;;;;5072575;28;20224;-74
2023/02/12 03:59:42;;;;;;;19.70;5.80;;;29.10;54.60;;;;;;5072406;28;20302;-71
2023/02/12 04:02:09;;;;;;;19.17;5.33;;;28.90;54.90;;;;;;5072269;28;20178;-70
2023/02/12 04:04:37;;;;;;;12.53;3.67;;;29.20;54.90;;;;;;5072286;28;20179;-71
2023/02/12 04:07:05;;;;;;;14.57;4.60;;;29.10;54.70;;;;;;5072313;28;20187;-70
2023/02/12 04:09:32;;;;;;;13.93;4.83;;;29.00;54.50;;;;;;5072189;28;20194;-72
2023/02/12 04:12:07;;;;;;;19.77;4.50;;;29.30;54.60;;;;;;5072304;28;20233;-70
2023/02/12 04:14:54;;;;;;;17.37;5.40;;;29.20;54.90;;;;;;5070460;28;20183;-69
2023/02/12 04:17:29;;;;;;;13.77;4.88;;;29.20;54.90;;;;;;5071646;28;20180;-70
2023/02/12 04:20:02;;;;;;;19.73;5.30;;;29.00;54.80;;;;;;5071981;28;20214;-72
2023/02/12 04:22:51;;;;;;;18.17;4.87;;;29.30;55.20;;;;;;5068186;28;20705;-69
2023/02/12 04:25:36;;;;;;;12.57;4.83;;;29.10;55.10;;;;;;5069832;28;20178;-72
2023/02/12 04:28:18;;;;;;;20.17;5.50;;;29.20;54.90;;;;;;5071284;28;20187;-69
2023/02/12 04:31:13;;;;;;;15.33;5.23;;;29.30;54.60;;;;;;5068902;28;20179;-71
2023/02/12 04:33:53;;;;;;;13.80;4.63;;;29.30;54.60;;;;;;5066566;28;20559;-68
2023/02/12 04:36:32;;;;;;;25.60;5.90;;;29.30;54.00;;;;;;5071187;28;20189;-69
2023/02/12 04:39:09;;;;;;;13.43;4.18;;;29.00;55.30;;;;;;5069430;28;20210;-70
2023/02/12 04:41:38;;;;;;;18.77;5.68;;;28.70;56.80;;;;;;5066814;28;20546;-71
2023/02/12 04:44:24;;;;;;;15.50;4.47;;;28.90;56.20;;;;;;5070516;28;20634;-69
2023/02/12 04:46:52;;;;;;;16.55;5.32;;;29.30;55.30;;;;;;5070900;28;20711;-72
2023/02/12 04:49:22;;;;;;;17.67;5.43;;;29.30;55.40;;;;;;5071177;28;20245;-71
2023/02/12 04:51:50;;;;;;;24.10;5.70;;;29.30;56.00;;;;;;5070764;28;20216;-70
2023/02/12 04:54:20;;;;;;;18.40;5.07;;;29.70;54.90;;;;;;5071009;28;20193;-75
2023/02/12 04:56:47;;;;;;;19.17;5.47;;;29.30;55.30;;;;;;5069401;28;20198;-71
2023/02/12 04:59:16;;;;;;;19.60;5.10;;;29.60;55.30;;;;;;5069422;28;20206;-73
2023/02/12 05:01:44;;;;;;;19.33;4.18;;;29.70;54.80;;;;;;5069133;28;20183;-71
2023/02/12 05:04:13;;;;;;;14.07;4.43;;;29.90;53.70;;;;;;5067031;28;20209;-70
2023/02/12 05:06:42;;;;;;;17.33;5.33;;;29.70;54.00;;;;;;5070924;28;20175;-71
2023/02/12 05:09:15;;;;;;;20.50;5.25;;;29.60;55.10;;;;;;5067784;28;20240;-67
2023/02/12 05:11:42;;;;;;;15.73;5.20;;;29.60;55.80;;;;;;5068971;28;20277;-68
2023/02/12 05:14:10;;;;;;;17.52;5.05;;;29.60;56.00;;;;;;5064534;28;20215;-71
2023/02/12 05:16:37;;;;;;;20.25;5.57;;;30.10;55.90;;;;;;5071722;28;20190;-70
2023/02/12 05:19:05;;;;;;;15.32;4.53;;;30.40;54.90;;;;;;5071196;28;20355;-68
2023/02/12 05:21:32;;;;;;;20.63;4.63;;;30.60;53.50;;;;;;5069257;28;20540;-69
2023/02/12 05:24:02;;;;;;;18.63;5.22;;;30.80;53.40;;;;;;5070874;28;20190;-69
2023/02/12 05:26:29;;;;;;;16.17;4.57;;;31.00;52.60;;;;;;5071479;28;20557;-72
2023/02/12 05:28:56;;;;;;;15.35;4.30;;;30.90;52.30;;;;;;5070870;28;20175;-69
2023/02/12 05:31:24;;;;;;;16.17;4.38;;;31.30;51.60;;;;;;5071093;28;20654;-70
2023/02/12 05:33:51;;;;;;;15.23;3.78;;;31.50;50.90;;;;;;5070620;28;20646;-73
2023/02/12 05:36:22;;;;;;;13.20;4.05;;;31.90;49.90;;;;;;5070865;28;20214;-68
2023/02/12 05:38:51;;;;;;;22.13;4.80;;;31.80;50.40;;;;;;5071166;28;20203;-71
2023/02/12 05:41:23;;;;;;;17.10;4.00;;;31.50;50.90;;;;;;5070937;27;20186;-73
2023/02/12 05:43:50;;;;;;;14.95;4.00;;;31.10;52.60;;;;;;5066122;28;20179;-71
2023/02/12 05:46:20;;;;;;;14.07;4.18;;;31.30;51.70;;;;;;5065238;28;20237;-71
2023/02/12 05:48:48;;;;;;;15.55;4.80;;;30.80;53.60;;;;;;5070820;28;20183;-69
2023/02/12 05:51:20;;;;;;;18.95;5.40;;;30.60;54.70;;;;;;5072068;28;20183;-69
2023/02/12 05:53:49;;;;;;;17.13;5.10;;;31.30;52.70;;;;;;5071820;28;20237;-68
2023/02/12 05:56:18;;;;;;;18.27;5.30;;;31.30;53.10;;;;;;5069902;28;20254;-68
2023/02/12 05:58:50;;;;;;;23.75;5.32;;;30.70;54.60;;;;;;5067864;28;20288;-72
2023/02/12 06:01:24;;;;;;;22.27;5.53;;;30.30;55.70;;;;;;5073228;28;20209;-68
2023/02/12 06:03:52;;;;;;;24.35;5.55;;;29.30;57.60;;;;;;5073678;28;20179;-68
2023/02/12 06:06:19;;;;;;;16.53;5.23;;;29.10;58.50;;;;;;5073378;28;20194;-75
2023/02/12 06:08:50;;;;;;;20.00;5.13;;;29.30;58.80;;;;;;5071972;28;20180;-71
2023/02/12 06:11:18;;;;;;;22.60;5.35;;;29.20;58.80;;;;;;5073548;28;20673;-71
2023/02/12 06:13:45;;;;;;;19.90;5.23;;;29.10;59.60;;;;;;5072634;28;20180;-71
2023/02/12 06:16:25;;;;;;;22.03;5.07;;;28.70;60.50;;;;;;5070274;28;20544;-69
2023/02/12 06:18:53;;;;;;;27.10;6.33;;;28.90;61.20;;;;;;5073628;28;20209;-70
2023/02/12 06:21:22;;;;;;;20.20;6.00;;;30.00;58.30;;;;;;5073208;28;20261;-72
2023/02/12 06:23:51;;;;;;;25.35;5.95;;;30.30;57.80;;;;;;5073867;28;20210;-74
2023/02/12 06:26:19;;;;;;;22.02;5.20;;;30.00;57.70;;;;;;5074488;28;20711;-74
2023/02/12 06:28:46;;;;;;;23.33;5.13;;;29.50;58.00;;;;;;5071032;28;20176;-70
2023/02/12 06:31:31;;;;;;;24.63;5.72;;;29.80;57.50;;;;;;5073719;28;20183;-71
2023/02/12 06:34:02;;;;;;;17.33;5.53;;;28.70;60.10;;;;;;5070210;28;20198;-75
2023/02/12 06:36:29;;;;;;;22.97;5.47;;;28.20;61.30;;;;;;5070104;28;20183;-73
2023/02/12 06:38:57;;;;;;;27.97;6.17;;;27.70;63.30;;;;;;5073642;28;20238;-68
2023/02/12 06:41:24;;;;;;;21.47;6.23;;;27.30;64.70;;;;;;5071765;28;20191;-68
2023/02/12 06:43:51;;;;;;;29.50;6.23;;;27.10;65.90;;;;;;5073847;28;20286;-70
2023/02/12 06:46:19;;;;;;;30.10;6.47;;;26.90;66.10;;;;;;5074062;28;20183;-73
2023/02/12 06:48:46;;;;;;;23.10;6.30;;;26.80;66.40;;;;;;5071464;28;20236;-74
2023/02/12 06:51:20;;;;;;;27.87;6.13;;;27.00;65.70;;;;;;5073450;28;20270;-71
2023/02/12 06:53:48;;;;;;;21.90;6.13;;;26.80;66.70;;;;;;5073399;28;20634;-70
2023/02/12 06:56:15;;;;;;;22.60;5.97;;;27.20;65.50;;;;;;5071733;28;20187;-71
2023/02/12 06:58:45;;;;;;;26.00;6.47;;;27.10;65.60;;;;;;5072632;28;20282;-70
2023/02/12 07:01:18;;;;;;;27.43;6.33;;;27.50;65.00;;;;;;5074692;28;20176;-72
2023/02/12 07:03:49;;;;;;;25.93;6.00;;;28.30;63.00;;;;;;5070877;28;20172;-68
2023/02/12 07:06:17;;;;;;;24.60;6.77;;;28.30;62.50;;;;;;5072482;28;20183;-71
2023/02/12 07:08:44;;;;;;;22.93;5.80;;;28.00;63.50;;;;;;5071085;28;20176;-69
2023/02/12 07:11:12;;;;;;;25.83;6.10;;;27.70;64.60;;;;;;5070074;28;20910;-73
2023/02/12 07:13:44;;;;;;;26.10;6.23;;;27.30;65.90;;;;;;5064785;28;20275;-72
2023/02/12 07:16:14;;;;;;;26.97;7.80;;;27.70;64.50;;;;;;5072754;28;20305;-73
2023/02/12 07:18:42;;;;;;;25.70;6.67;;;27.60;64.60;;;;;;5076366;28;20218;-70
2023/02/12 07:21:11;;;;;;;24.80;6.63;;;27.60;64.10;;;;;;5072698;28;20669;-68
2023/02/12 07:23:39;;;;;;;22.80;6.30;;;27.90;63.10;;;;;;5072980;28;20266;-69
2023/02/12 07:26:11;;;;;;;21.50;4.97;;;27.60;63.30;;;;;;5072778;28;20229;-70
2023/02/12 07:28:39;;;;;;;23.10;5.23;;;27.70;63.50;;;;;;5073341;28;20187;-70
2023/02/12 07:31:08;;;;;;;26.27;6.30;;;27.80;63.50;;;;;;5072151;28;20262;-70
2023/02/12 07:33:37;;;;;;;27.40;6.40;;;27.10;64.80;;;;;;5073610;28;20176;-71
2023/02/12 07:36:07;;;;;;;28.87;6.07;;;26.70;66.70;;;;;;5073023;28;20183;-69
2023/02/12 07:38:41;;;;;;;19.57;4.67;;;26.30;67.60;;;;;;5072811;28;20555;-69
2023/02/12 07:41:08;;;;;;;21.97;5.53;;;26.00;68.10;;;;;;5072269;28;20240;-67
2023/02/12 07:43:36;;;;;;;25.87;5.27;;;25.80;69.10;;;;;;5069523;28;20269;-71
2023/02/12 07:46:08;;;;;;;24.50;5.10;;;25.80;69.20;;;;;;5064199;28;20190;-73
2023/02/12 07:48:36;;;;;;;22.60;5.30;;;26.40;67.90;;;;;;5072086;28;20179;-71
2023/02/12 07:51:09;;;;;;;23.10;5.27;;;26.80;66.20;;;;;;5072887;28;20774;-73
2023/02/12 07:53:37;;;;;;;24.70;5.63;;;27.00;65.70;;;;;;5072635;28;20218;-71
2023/02/12 07:56:31;;;;;;;21.77;5.03;;;26.90;65.60;;;;;;5069879;28;20225;-70
2023/02/12 07:59:00;;;;;;;21.50;4.77;;;26.80;65.70;;;;;;5070144;28;20575;-70
2023/02/12 08:01:38;;;;;;;22.43;5.50;;;26.30;67.10;;;;;;5069219;28;20194;-70
2023/02/12 08:04:09;;;;;;;19.33;5.53;;;26.00;68.80;;;;;;5069266;28;20270;-71
2023/02/12 08:06:39;;;;;;;25.23;5.50;;;25.80;68.80;;;;;;5070802;28;20170;-71
2023/02/12 08:09:09;;;;;;;21.47;5.40;;;25.60;69.80;;;;;;5073148;28;20237;-72
2023/02/12 08:11:38;;;;;;;22.73;5.50;;;25.50;70.20;;;;;;5066794;28;20179;-72
2023/02/12 08:14:05;;;;;;;16.90;4.53;;;25.30;70.30;;;;;;5070307;28;20274;-73
2023/02/12 08:16:38;;;;;;;17.67;5.10;;;25.30;70.60;;;;;;5069437;28;20183;-67
2023/02/12 08:19:06;;;;;;;24.97;5.77;;;25.30;70.70;;;;;;5070817;28;20300;-69
2023/02/12 08:21:33;;;;;;;28.10;5.23;;;25.00;71.50;;;;;;5063683;28;20218;-69
2023/02/12 08:24:01;;;;;;;24.03;5.40;;;24.80;72.60;;;;;;5065761;28;20673;-69
2023/02/12 08:26:33;;;;;;;23.10;5.43;;;24.80;72.20;;;;;;5071248;28;20313;-69
2023/02/12 08:29:10;;;;;;;21.87;4.87;;;24.80;71.80;;;;;;5071123;28;20175;-69
2023/02/12 08:31:46;;;;;;;19.03;4.83;;;24.80;72.30;;;;;;5066744;28;20182;-71
2023/02/12 08:34:22;;;;;;;23.37;5.40;;;24.80;72.50;;;;;;5069829;28;20183;-72
2023/02/12 08:36:54;;;;;;;21.20;5.53;;;24.70;72.60;;;;;;5069097;28;20293;-75
2023/02/12 08:39:23;;;;;;;23.30;5.60;;;24.60;72.90;;;;;;5067559;28;20218;-71
2023/02/12 08:41:53;;;;;;;22.50;5.47;;;24.60;73.00;;;;;;5067344;28;20175;-73
2023/02/12 08:44:21;;;;;;;31.80;6.53;;;24.50;73.40;;;;;;5068334;28;20751;-72
2023/02/12 08:46:51;;;;;;;23.27;5.43;;;24.40;73.60;;;;;;5070448;28;20180;-71
2023/02/12 08:49:21;;;;;;;20.27;5.43;;;24.30;73.90;;;;;;5069503;28;20194;-72
2023/02/12 08:51:51;;;;;;;25.13;5.77;;;24.30;74.20;;;;;;5068451;28;20222;-74
2023/02/12 08:54:22;;;;;;;25.50;5.33;;;24.20;74.60;;;;;;5070883;28;20185;-71
2023/02/12 08:56:53;;;;;;;24.03;5.33;;;24.30;74.10;;;;;;5070481;28;20175;-71
2023/02/12 08:59:20;;;;;;;24.87;5.53;;;24.30;73.80;;;;;;5069664;28;20215;-71
2023/02/12 09:01:51;;;;;;;24.27;5.63;;;24.30;73.70;;;;;;5070224;28;20187;-72
2023/02/12 09:04:21;;;;;;;28.70;5.77;;;24.30;73.20;;;;;;5069935;28;20253;-71
2023/02/12 09:06:50;;;;;;;26.67;6.40;;;24.20;73.30;;;;;;5066376;28;20175;-71
2023/02/12 09:09:18;;;;;;;26.50;4.90;;;24.20;73.70;;;;;;5067454;28;20179;-70
2023/02/12 09:11:46;;;;;;;25.27;4.93;;;24.30;73.70;;;;;;5069307;28;20266;-70
2023/02/12 09:14:16;;;;;;;28.33;5.40;;;24.20;73.50;;;;;;5060658;28;20183;-71
2023/02/12 09:16:44;;;;;;;19.63;5.30;;;24.00;74.30;;;;;;5069505;28;20266;-71
2023/02/12 09:19:13;;;;;;;24.50;5.57;;;24.10;74.40;;;;;;5068420;28;20298;-73
2023/02/12 09:21:41;;;;;;;24.70;6.70;;;24.10;74.40;;;;;;5069868;28;20213;-71
2023/02/12 09:24:08;;;;;;;30.83;6.80;;;24.20;74.20;;;;;;5066094;28;20536;-71
2023/02/12 09:26:35;;;;;;;20.33;5.17;;;24.20;73.80;;;;;;5070917;28;20179;-70
2023/02/12 09:29:03;;;;;;;18.57;4.57;;;24.10;73.50;;;;;;5070019;28;20183;-69
2023/02/12 09:31:32;;;;;;;23.03;5.07;;;24.00;72.70;;;;;;5064854;28;20187;-70
2023/02/12 09:34:03;;;;;;;21.97;4.97;;;24.00;72.80;;;;;;5067846;28;20210;-70
2023/02/12 09:36:32;;;;;;;20.03;5.03;;;24.00;72.90;;;;;;5072484;28;20214;-71
2023/02/12 09:38:59;;;;;;;26.43;5.80;;;24.00;72.80;;;;;;5072791;28;20290;-73
2023/02/12 09:41:49;;;;;;;20.33;6.13;;;23.90;73.10;;;;;;5072859;28;20187;-70
2023/02/12 09:44:43;;;;;;;20.33;6.17;;;24.00;72.80;;;;;;5069117;28;20186;-69
2023/02/12 09:47:32;;;;;;;26.33;5.13;;;23.90;72.30;;;;;;5073104;28;20194;-70
2023/02/12 09:50:37;;;;;;;25.20;5.00;;;23.90;71.80;;;;;;5072713;28;20183;-72
2023/02/12 09:53:05;;;;;;;29.03;5.83;;;23.90;72.00;;;;;;5069516;28;20235;-72
2023/02/12 09:55:35;;;;;;;26.13;5.30;;;24.00;72.00;;;;;;5072372;28;20238;-71
2023/02/12 09:58:10;;;;;;;27.80;6.00;;;23.90;72.30;;;;;;5074508;28;20368;-70
2023/02/12 10:00:38;;;;;;;22.73;5.43;;;23.90;72.70;;;;;;5067176;28;20211;-70
2023/02/12 10:03:13;;;;;;;23.70;5.43;;;23.90;72.70;;;;;;5065040;28;20183;-71
2023/02/12 10:05:53;;;;;;;29.73;5.67;;;24.00;73.10;;;;;;5066859;28;20179;-70
2023/02/12 10:08:32;;;;;;;15.00;5.00;;;23.90;73.00;;;;;;5071646;28;20530;-70
2023/02/12 10:11:08;;;;;;;21.40;5.23;;;23.90;73.40;;;;;;5068835;28;20641;-72
2023/02/12 10:13:41;;;;;;;25.57;5.50;;;23.80;73.40;;;;;;5071319;28;20534;-70
2023/02/12 10:16:28;;;;;;;26.37;6.13;;;23.90;73.50;;;;;;5071747;28;20186;-69
2023/02/12 10:19:26;;;;;;;21.80;5.37;;;23.80;73.50;;;;;;5058259;28;20227;-69
2023/02/12 10:22:30;;;;;;;23.33;5.00;;;23.80;73.40;;;;;;5069091;28;20186;-71
2023/02/12 10:25:06;;;;;;;28.13;5.13;;;23.80;73.00;;;;;;5070209;28;20279;-70
2023/02/12 10:27:54;;;;;;;25.37;5.73;;;23.80;73.20;;;;;;5069167;28;20179;-72
2023/02/12 10:30:24;;;;;;;22.93;5.00;;;23.70;73.40;;;;;;5073155;28;20210;-70
2023/02/12 10:33:06;;;;;;;23.83;4.73;;;23.70;73.90;;;;;;5069359;28;20183;-70
2023/02/12 10:35:35;;;;;;;22.80;5.90;;;23.70;74.00;;;;;;5066985;28;20190;-71
2023/02/12 10:38:15;;;;;;;25.57;5.90;;;23.70;74.50;;;;;;5072177;28;20256;-70
2023/02/12 10:40:44;;;;;;;21.73;5.53;;;23.70;74.60;;;;;;5067708;28;20199;-70
2023/02/12 10:43:13;;;;;;;24.80;5.47;;;23.60;75.00;;;;;;5073344;28;20390;-69
2023/02/12 10:45:42;;;;;;;22.33;5.93;;;23.60;75.00;;;;;;5072713;28;20580;-68
2023/02/12 10:48:12;;;;;;;33.53;6.20;;;23.60;75.10;;;;;;5072867;28;20190;-68
2023/02/12 10:50:43;;;;;;;26.00;5.73;;;23.60;74.70;;;;;;5072485;28;20218;-68
2023/02/12 10:53:43;;;;;;;29.07;5.83;;;23.60;74.90;;;;;;5073613;28;20219;-69
2023/02/12 10:56:13;;;;;;;24.20;5.90;;;23.60;75.00;;;;;;5069651;28;20696;-67
2023/02/12 10:58:58;;;;;;;22.47;5.57;;;23.60;75.00;;;;;;5075536;28;20211;-71
2023/02/12 11:01:33;;;;;;;21.67;5.13;;;23.50;74.90;;;;;;5068263;28;20168;-69
2023/02/12 11:04:32;;;;;;;22.73;5.17;;;23.50;74.90;;;;;;5074407;28;20183;-69
2023/02/12 11:07:06;;;;;;;23.00;5.63;;;23.50;75.10;;;;;;5073486;28;20180;-69
2023/02/12 11:09:45;;;;;;;21.10;5.07;;;23.50;75.30;;;;;;5072421;28;20195;-70
2023/02/12 11:12:35;;;;;;;23.83;5.20;;;23.50;75.00;;;;;;5070871;28;20548;-69
2023/02/12 11:15:12;;;;;;;20.57;5.17;;;23.40;75.10;;;;;;5071835;28;20227;-69
2023/02/12 11:18:01;;;;;;;16.73;5.40;;;23.40;75.30;;;;;;5073489;28;20269;-70
2023/02/12 11:20:33;;;;;;;23.43;4.93;;;23.50;75.20;;;;;;5066137;28;20229;-70
2023/02/12 11:23:06;;;;;;;28.43;6.47;;;23.40;75.40;;;;;;5070622;28;20192;-70
2023/02/12 11:25:36;;;;;;;29.13;5.37;;;23.40;75.30;;;;;;5072431;28;20213;-70
2023/02/12 11:28:06;;;;;;;20.77;5.07;;;23.30;75.70;;;;;;5071711;28;20557;-69
2023/02/12 11:30:35;;;;;;;19.70;4.63;;;23.40;75.30;;;;;;5072799;28;20171;-69
2023/02/12 11:33:24;;;;;;;18.77;4.87;;;23.30;75.00;;;;;;5074727;28;20195;-71
2023/02/12 11:35:58;;;;;;;24.30;4.73;;;23.30;74.70;;;;;;5072195;28;20588;-70
2023/02/12 11:38:33;;;;;;;26.83;5.87;;;23.30;74.60;;;;;;5072182;28;20179;-69
2023/02/12 11:41:20;;;;;;;19.77;5.60;;;23.30;74.70;;;;;;5072163;28;20218;-70
2023/02/12 11:43:48;;;;;;;23.13;5.23;;;23.30;74.20;;;;;;5069943;28;20183;-69
2023/02/12 11:46:27;;;;;;;23.07;5.27;;;23.30;73.90;;;;;;5064106;28;20558;-70
2023/02/12 11:48:56;;;;;;;21.50;5.10;;;23.30;74.00;;;;;;5072206;28;20625;-70
2023/02/12 11:51:29;;;;;;;20.73;4.23;;;23.30;74.00;;;;;;5072264;28;20534;-69
2023/02/12 11:54:00;;;;;;;22.53;4.87;;;23.30;73.80;;;;;;5072360;28;20629;-69
2023/02/12 11:56:42;;;;;;;25.97;5.43;;;23.30;73.90;;;;;;5071469;28;20592;-70
2023/02/12 11:59:34;;;;;;;23.00;4.90;;;23.40;74.30;;;;;;5072049;28;20222;-69
2023/02/12 12:02:32;;;;;;;26.90;5.67;;;23.50;74.40;;;;;;5071836;28;20203;-69
2023/02/12 12:05:12;;;;;;;29.90;6.00;;;23.50;74.20;;;;;;5071274;28;20195;-67
2023/02/12 12:07:44;;;;;;;23.27;6.00;;;23.50;73.70;;;;;;5068706;28;20183;-69
2023/02/12 12:11:12;;;;;;;22.10;5.30;;;23.50;73.80;;;;;;5070138;28;20229;-69
2023/02/12 12:14:06;;;;;;;23.67;4.87;;;23.40;74.10;;;;;;5046031;28;20179;-70
2023/02/12 12:19:53;;;;;;;21.53;5.20;;;23.30;73.70;;;;;;5066309;28;20222;-68
2023/02/12 12:22:46;;;;;;;19.77;5.37;;;23.30;74.30;;;;;;5065468;28;20640;-70
2023/02/12 12:25:32;;;;;;;18.30;6.17;;;23.30;74.30;;;;;;5067038;28;20278;-68
2023/02/12 12:28:17;;;;;;;23.23;5.17;;;23.30;74.50;;;;;;5071549;28;20179;-71
2023/02/12 12:31:04;;;;;;;23.33;5.93;;;23.30;74.90;;;;;;5068132;28;20622;-70
2023/02/12 12:33:43;;;;;;;23.07;5.33;;;23.30;74.70;;;;;;5071478;28;20190;-69
2023/02/12 12:36:13;;;;;;;28.20;6.63;;;23.30;74.80;;;;;;5071776;28;20187;-68
2023/02/12 12:38:43;;;;;;;19.47;5.77;;;23.30;74.80;;;;;;5071567;28;20733;-69
2023/02/12 12:41:38;;;;;;;28.20;6.77;;;23.30;74.60;;;;;;5068457;28;20381;-69
2023/02/12 12:44:30;;;;;;;34.67;7.53;;;23.30;74.60;;;;;;5071897;28;20195;-68
2023/02/12 12:47:34;;;;;;;22.47;6.87;;;23.30;74.90;;;;;;5070777;28;20638;-70
2023/02/12 12:50:33;;;;;;;24.57;6.23;;;23.30;74.30;;;;;;5068071;28;20181;-70
2023/02/12 12:53:09;;;;;;;24.57;6.57;;;23.30;74.40;;;;;;5059482;28;20233;-70
2023/02/12 12:55:39;;;;;;;22.03;7.00;;;23.40;73.80;;;;;;5069191;28;20543;-70
2023/02/12 12:58:24;;;;;;;18.07;5.33;;;23.40;73.40;;;;;;5070913;28;20285;-70
2023/02/12 13:01:10;;;;;;;22.73;6.17;;;23.30;73.60;;;;;;5068986;28;20179;-70
2023/02/12 13:04:04;;;;;;;24.20;5.57;;;23.30;73.50;;;;;;5069476;28;20638;-71
2023/02/12 13:07:06;;;;;;;22.30;5.50;;;23.30;73.40;;;;;;5068608;28;20187;-70
2023/02/12 13:10:02;;;;;;;29.77;7.20;;;23.30;73.60;;;;;;5066412;28;20178;-70
2023/02/12 13:12:54;;;;;;;31.10;7.17;;;23.30;73.80;;;;;;5070774;28;20175;-67
2023/02/12 13:15:43;;;;;;;30.70;6.93;;;23.30;73.90;;;;;;5069436;28;20194;-68
2023/02/12 13:18:20;;;;;;;25.60;6.53;;;23.30;74.40;;;;;;5070564;28;20182;-68
2023/02/12 13:21:14;;;;;;;29.37;6.63;;;23.40;74.20;;;;;;5064021;28;20206;-68